createdAt,value
2019-02-22T00:00:43.703Z,31.47
2019-02-22T00:03:12.307Z,30.93
2019-02-22T00:05:40.943Z,31.87
2019-02-22T00:08:09.553Z,33.47
2019-02-22T00:10:38.174Z,33.03
2019-02-22T00:13:06.765Z,31.00
2019-02-22T00:15:36.394Z,30.40
2019-02-22T00:18:04.008Z,32.73
2019-02-22T00:20:32.634Z,30.07
2019-02-22T00:23:01.551Z,30.67
2019-02-22T00:25:30.169Z,31.07
2019-02-22T00:27:59.147Z,32.83
2019-02-22T00:30:27.781Z,31.00
2019-02-22T00:32:56.420Z,31.30
2019-02-22T00:35:25.128Z,31.90
2019-02-22T00:37:53.650Z,30.77
2019-02-22T00:40:22.275Z,33.47
2019-02-22T00:42:50.909Z,31.77
2019-02-22T00:45:19.539Z,32.93
2019-02-22T00:47:48.153Z,31.33
2019-02-22T00:50:17.074Z,31.20
2019-02-22T00:52:45.677Z,31.10
2019-02-22T00:55:14.328Z,31.60
2019-02-22T00:57:43.234Z,32.03
2019-02-22T01:00:11.847Z,32.33
2019-02-22T01:05:25.663Z,32.37
2019-02-22T01:07:54.277Z,32.27
2019-02-22T01:10:30.819Z,32.47
2019-02-22T01:12:51.517Z,31.70
2019-02-22T01:15:20.149Z,32.80
2019-02-22T01:17:48.766Z,32.27
2019-02-22T01:20:17.397Z,32.37
2019-02-22T01:22:46.035Z,33.63
2019-02-22T01:25:14.680Z,32.00
2019-02-22T01:27:43.617Z,33.17
2019-02-22T01:30:12.267Z,32.83
2019-02-22T01:32:41.189Z,33.13
2019-02-22T01:35:09.821Z,32.90
2019-02-22T01:42:55.521Z,31.83
2019-02-22T01:45:24.155Z,30.97
2019-02-22T01:47:52.793Z,33.10
2019-02-22T01:50:21.419Z,32.60
2019-02-22T01:52:50.323Z,32.27
2019-02-22T01:55:18.957Z,32.10
2019-02-22T01:57:47.642Z,30.27
2019-02-22T02:00:16.275Z,30.97
2019-02-22T02:02:44.905Z,31.37
2019-02-22T02:05:13.526Z,30.40
2019-02-22T02:07:42.137Z,30.03
2019-02-22T02:10:10.761Z,30.97
2019-02-22T02:15:17.930Z,32.20
2019-02-22T02:17:46.551Z,29.40
2019-02-22T02:20:15.450Z,28.90
2019-02-22T02:22:43.869Z,30.70
2019-02-22T02:25:12.506Z,29.23
2019-02-22T02:27:41.135Z,29.47
2019-02-22T02:30:09.778Z,29.97
2019-02-22T02:35:17.271Z,28.50
2019-02-22T02:37:46.216Z,28.03
2019-02-22T02:40:15.201Z,28.80
2019-02-22T02:42:43.849Z,26.73
2019-02-22T02:45:12.476Z,27.70
2019-02-22T02:47:41.103Z,26.87
2019-02-22T02:50:10.036Z,26.73
2019-02-22T02:52:38.637Z,26.93
2019-02-22T02:57:46.122Z,26.00
2019-02-22T03:00:14.784Z,26.63
2019-02-22T03:02:43.393Z,26.53
2019-02-22T03:05:12.012Z,24.83
2019-02-22T03:07:40.626Z,24.53
2019-02-22T03:10:09.551Z,25.70
2019-02-22T03:12:38.154Z,24.10
2019-02-22T03:15:06.804Z,25.20
2019-02-22T03:17:35.432Z,25.63
2019-02-22T03:20:04.070Z,24.93
2019-02-22T03:22:32.966Z,24.60
2019-02-22T03:25:01.581Z,25.17
2019-02-22T03:27:30.215Z,23.70
2019-02-22T03:29:58.816Z,22.80
2019-02-22T03:32:27.453Z,24.03
2019-02-22T03:34:56.061Z,23.03
2019-02-22T03:37:24.966Z,22.43
2019-02-22T03:39:53.715Z,23.00
2019-02-22T03:42:22.646Z,21.67
2019-02-22T03:44:51.259Z,23.13
2019-02-22T03:47:19.899Z,22.00
2019-02-22T03:49:48.562Z,20.90
2019-02-22T03:52:17.204Z,22.93
2019-02-22T03:54:45.807Z,21.47
2019-02-22T03:57:14.697Z,22.53
2019-02-22T03:59:43.307Z,22.70
2019-02-22T04:02:12.220Z,23.00
2019-02-22T04:04:40.831Z,22.87
2019-02-22T04:07:09.465Z,21.60
2019-02-22T04:09:38.091Z,20.50
2019-02-22T04:12:07.058Z,20.40
2019-02-22T04:14:35.691Z,18.87
2019-02-22T04:17:04.351Z,19.00
2019-02-22T04:19:32.965Z,19.73
2019-02-22T04:22:01.590Z,18.07
2019-02-22T04:24:30.218Z,16.83
2019-02-22T04:26:59.167Z,17.23
2019-02-22T04:29:28.058Z,18.07
2019-02-22T04:31:56.702Z,16.73
2019-02-22T04:34:25.305Z,16.03
2019-02-22T04:36:53.933Z,15.90
2019-02-22T04:39:22.568Z,15.23
2019-02-22T04:41:58.066Z,15.03
2019-02-22T04:44:20.178Z,15.17
2019-02-22T04:46:48.802Z,14.37
2019-02-22T04:49:17.412Z,15.77
2019-02-22T04:51:46.046Z,14.87
2019-02-22T04:54:14.665Z,14.00
2019-02-22T04:56:43.297Z,13.43
2019-02-22T05:01:50.462Z,12.80
2019-02-22T05:04:19.095Z,13.57
2019-02-22T05:06:47.737Z,12.43
2019-02-22T05:09:16.367Z,13.33
2019-02-22T05:11:45.306Z,12.63
2019-02-22T05:14:13.930Z,13.13
2019-02-22T05:16:42.887Z,11.97
2019-02-22T05:21:50.389Z,11.17
2019-02-22T05:24:19.017Z,11.67
2019-02-22T05:26:47.632Z,11.70
2019-02-22T05:29:16.285Z,11.33
2019-02-22T05:31:45.220Z,11.07
2019-02-22T05:34:14.231Z,10.67
2019-02-22T05:36:44.273Z,11.53
2019-02-22T05:39:18.983Z,11.00
2019-02-22T05:44:18.722Z,11.87
2019-02-22T05:46:47.433Z,11.10
2019-02-22T05:49:15.972Z,12.13
2019-02-22T05:51:44.616Z,12.03
2019-02-22T05:56:54.834Z,11.83
2019-02-22T05:59:21.133Z,12.27
2019-02-22T06:01:49.767Z,11.07
2019-02-22T06:04:18.749Z,12.77
2019-02-22T06:06:47.720Z,13.33
2019-02-22T06:09:16.339Z,12.63
2019-02-22T06:11:44.972Z,12.10
2019-02-22T06:14:13.849Z,12.87
2019-02-22T06:16:42.576Z,12.07
2019-02-22T06:21:50.160Z,13.77
2019-02-22T06:24:18.779Z,13.67
2019-02-22T06:26:47.421Z,13.40
2019-02-22T06:29:16.055Z,13.53
2019-02-22T06:31:44.980Z,13.33
2019-02-22T06:34:14.114Z,13.60
2019-02-22T06:36:42.810Z,14.40
2019-02-22T06:39:11.644Z,13.50
2019-02-22T06:41:40.388Z,14.53
2019-02-22T06:46:47.940Z,15.07
2019-02-22T06:49:16.759Z,13.97
2019-02-22T06:51:45.719Z,14.03
2019-02-22T06:54:14.366Z,15.07
2019-02-22T06:56:42.988Z,14.57
2019-02-22T07:01:50.309Z,15.33
2019-02-22T07:04:18.813Z,14.43
2019-02-22T07:06:47.436Z,14.47
2019-02-22T07:09:16.080Z,15.23
2019-02-22T07:11:44.703Z,15.10
2019-02-22T07:14:13.328Z,15.17
2019-02-22T07:16:41.959Z,15.80
2019-02-22T07:21:53.026Z,15.20
2019-02-22T07:24:18.071Z,14.80
2019-02-22T07:26:46.704Z,15.20
2019-02-22T07:29:15.347Z,14.93
2019-02-22T07:31:44.357Z,13.77
2019-02-22T07:34:13.310Z,16.10
2019-02-22T07:36:41.931Z,15.43
2019-02-22T07:41:49.107Z,17.00
2019-02-22T07:44:17.727Z,15.57
2019-02-22T07:46:46.358Z,14.50
2019-02-22T07:49:24.351Z,15.40
2019-02-22T07:51:52.999Z,15.70
2019-02-22T07:57:00.266Z,15.67
2019-02-22T08:02:07.797Z,12.70
2019-02-22T08:04:36.439Z,14.80
2019-02-22T08:07:05.079Z,14.37
2019-02-22T08:12:12.293Z,13.53
2019-02-22T08:14:41.239Z,13.60
2019-02-22T08:17:09.882Z,13.80
2019-02-22T08:19:38.505Z,12.70
2019-02-22T08:22:07.493Z,12.43
2019-02-22T08:24:36.133Z,12.43
2019-02-22T08:29:43.660Z,12.40
2019-02-22T08:32:12.298Z,12.17
2019-02-22T08:34:40.970Z,11.30
2019-02-22T08:37:09.941Z,10.23
2019-02-22T08:39:38.902Z,9.77
2019-02-22T08:42:07.549Z,11.23
2019-02-22T08:44:36.210Z,10.97
2019-02-22T08:47:04.845Z,11.23
2019-02-22T08:49:33.850Z,11.03
2019-02-22T08:52:02.471Z,10.80
2019-02-22T08:54:31.119Z,11.60
2019-02-22T08:56:59.751Z,10.83
2019-02-22T09:02:06.982Z,10.53
2019-02-22T09:04:35.881Z,11.47
2019-02-22T09:07:04.517Z,10.40
2019-02-22T09:09:33.194Z,11.07
2019-02-22T09:12:02.138Z,11.40
2019-02-22T09:14:30.792Z,11.53
2019-02-22T09:16:59.420Z,10.77
2019-02-22T09:19:28.056Z,12.30
2019-02-22T09:21:56.662Z,12.10
2019-02-22T09:27:04.110Z,10.37
2019-02-22T09:29:32.787Z,10.73
2019-02-22T09:32:01.372Z,11.90
2019-02-22T09:37:08.843Z,10.53
2019-02-22T09:39:37.839Z,10.07
2019-02-22T09:42:06.828Z,10.20
2019-02-22T09:44:35.457Z,10.07
2019-02-22T09:47:04.081Z,11.53
2019-02-22T09:49:33.084Z,11.47
2019-02-22T09:52:02.109Z,11.53
2019-02-22T09:54:30.749Z,11.97
2019-02-22T09:57:01.912Z,11.83
2019-02-22T10:02:06.902Z,11.97
2019-02-22T10:04:35.541Z,11.37
2019-02-22T10:07:04.525Z,10.17
2019-02-22T10:09:33.169Z,10.53
2019-02-22T10:12:01.821Z,10.50
2019-02-22T10:14:30.481Z,9.97
2019-02-22T10:16:59.104Z,10.30
2019-02-22T10:19:27.746Z,9.73
2019-02-22T10:21:57.621Z,9.53
2019-02-22T10:24:25.017Z,9.03
2019-02-22T10:26:53.634Z,9.90
2019-02-22T10:29:22.282Z,8.90
2019-02-22T10:31:50.908Z,10.13
2019-02-22T10:34:19.549Z,9.40
2019-02-22T10:36:48.529Z,10.57
2019-02-22T10:39:17.150Z,7.93
2019-02-22T10:41:46.105Z,8.30
2019-02-22T10:44:17.778Z,7.93
2019-02-22T10:46:43.678Z,7.37
2019-02-22T10:49:12.286Z,7.73
2019-02-22T10:51:41.184Z,7.03
2019-02-22T10:56:48.344Z,6.87
2019-02-22T10:59:16.977Z,6.40
2019-02-22T11:01:45.618Z,6.17
2019-02-22T11:04:14.232Z,6.77
2019-02-22T11:06:42.877Z,5.90
2019-02-22T11:09:11.505Z,6.00
2019-02-22T11:11:40.142Z,5.10
2019-02-22T11:16:47.327Z,5.70
2019-02-22T11:19:15.966Z,4.50
2019-02-22T11:21:44.587Z,6.30
2019-02-22T11:24:13.197Z,8.23
2019-02-22T11:26:41.838Z,9.13
2019-02-22T11:31:49.329Z,8.50
2019-02-22T11:34:18.273Z,10.70
2019-02-22T11:36:47.256Z,11.97
2019-02-22T11:39:15.873Z,9.67
2019-02-22T11:41:44.525Z,11.27
2019-02-22T11:44:13.139Z,10.63
2019-02-22T11:46:41.763Z,11.97
2019-02-22T11:49:10.386Z,11.70
2019-02-22T11:51:39.363Z,10.90
2019-02-22T11:56:46.567Z,10.77
2019-02-22T11:59:15.199Z,10.43
2019-02-22T12:01:43.861Z,10.60
2019-02-22T12:04:12.501Z,10.80
2019-02-22T12:06:41.158Z,9.60
2019-02-22T12:11:48.375Z,9.40
2019-02-22T12:14:17.009Z,9.00
2019-02-22T12:16:45.679Z,9.13
2019-02-22T12:19:14.313Z,9.33
2019-02-22T12:21:42.956Z,9.07
2019-02-22T12:24:11.916Z,10.00
2019-02-22T12:26:40.909Z,9.87
2019-02-22T12:31:48.099Z,11.10
2019-02-22T12:34:16.728Z,10.50
2019-02-22T12:36:45.370Z,11.90
2019-02-22T12:39:14.046Z,14.63
2019-02-22T12:41:42.713Z,16.00
2019-02-22T12:44:11.348Z,15.73
2019-02-22T12:46:39.993Z,17.43
2019-02-22T12:51:47.196Z,18.60
2019-02-22T12:54:15.835Z,18.80
2019-02-22T12:56:56.622Z,17.00
2019-02-22T12:59:13.092Z,17.10
2019-02-22T13:01:41.724Z,17.27
2019-02-22T13:06:49.235Z,18.27
2019-02-22T13:09:18.235Z,20.23
2019-02-22T13:11:47.061Z,18.53
2019-02-22T13:14:15.506Z,18.70
2019-02-22T13:16:44.146Z,18.17
2019-02-22T13:19:13.075Z,18.03
2019-02-22T13:21:41.698Z,15.87
2019-02-22T13:26:48.873Z,13.13
2019-02-22T13:29:17.507Z,12.43
2019-02-22T13:31:46.223Z,10.57
2019-02-22T13:34:14.778Z,12.07
2019-02-22T13:36:43.688Z,10.73
2019-02-22T13:41:51.609Z,11.73
2019-02-22T13:44:20.243Z,11.13
2019-02-22T13:46:49.184Z,9.93
2019-02-22T13:49:17.815Z,10.13
2019-02-22T13:51:46.450Z,9.07
2019-02-22T13:54:15.083Z,10.07
2019-02-22T13:56:43.716Z,9.77
2019-02-22T13:59:12.352Z,10.43
2019-02-22T14:01:41.242Z,11.30
2019-02-22T14:06:48.450Z,12.60
2019-02-22T14:09:17.069Z,12.47
2019-02-22T14:11:45.715Z,14.13
2019-02-22T14:14:14.361Z,13.23
2019-02-22T14:16:43.007Z,11.83
2019-02-22T14:19:11.625Z,11.63
2019-02-22T14:21:40.566Z,11.27
2019-02-22T14:26:48.089Z,12.10
2019-02-22T14:29:16.725Z,10.63
2019-02-22T14:31:45.358Z,11.27
2019-02-22T14:34:14.009Z,12.07
2019-02-22T14:36:42.673Z,10.10
2019-02-22T14:41:50.133Z,10.77
2019-02-22T14:46:57.646Z,11.73
2019-02-22T14:49:26.300Z,13.93
2019-02-22T14:51:54.943Z,13.93
2019-02-22T14:54:23.567Z,14.13
2019-02-22T14:56:52.203Z,15.33
2019-02-22T14:59:20.833Z,18.20
2019-02-22T15:01:49.539Z,20.13
2019-02-22T15:04:18.168Z,18.60
2019-02-22T15:06:47.136Z,18.67
2019-02-22T15:09:15.760Z,19.13
2019-02-22T15:11:44.402Z,19.17
2019-02-22T15:14:13.049Z,19.67
2019-02-22T15:16:41.684Z,18.60
2019-02-22T15:21:48.879Z,16.73
2019-02-22T15:24:17.534Z,15.13
2019-02-22T15:26:46.513Z,15.70
2019-02-22T15:29:15.135Z,13.73
2019-02-22T15:31:44.086Z,15.20
2019-02-22T15:34:12.724Z,14.00
2019-02-22T15:36:41.436Z,13.13
2019-02-22T15:39:10.439Z,14.60
2019-02-22T15:41:39.447Z,13.33
2019-02-22T15:46:46.787Z,14.47
2019-02-22T15:49:15.745Z,14.77
2019-02-22T15:51:44.650Z,13.83
2019-02-22T15:54:13.269Z,15.40
2019-02-22T15:56:42.198Z,14.40
2019-02-22T16:01:55.667Z,15.37
2019-02-22T16:04:18.424Z,15.03
2019-02-22T16:06:47.142Z,14.80
2019-02-22T16:09:15.681Z,14.73
2019-02-22T16:11:44.653Z,12.93
2019-02-22T16:14:13.315Z,13.30
2019-02-22T16:16:41.939Z,12.50
2019-02-22T16:21:49.409Z,12.03
2019-02-22T16:24:18.052Z,11.57
2019-02-22T16:26:46.730Z,11.77
2019-02-22T16:29:15.350Z,12.43
2019-02-22T16:31:43.973Z,14.27
2019-02-22T16:34:12.607Z,12.77
2019-02-22T16:36:41.517Z,14.00
2019-02-22T16:41:48.815Z,15.97
2019-02-22T16:44:17.450Z,16.43
2019-02-22T16:46:46.063Z,18.03
2019-02-22T16:49:14.971Z,18.60
2019-02-22T16:51:43.956Z,19.87
2019-02-22T16:54:12.593Z,20.47
2019-02-22T16:56:41.535Z,20.93
2019-02-22T17:01:48.815Z,21.43
2019-02-22T17:04:18.841Z,21.27
2019-02-22T17:06:46.413Z,21.53
2019-02-22T17:09:15.400Z,20.63
2019-02-22T17:11:44.423Z,22.93
2019-02-22T17:14:13.119Z,21.43
2019-02-22T17:16:45.687Z,21.33
2019-02-22T17:21:49.806Z,22.13
2019-02-22T17:24:18.437Z,22.17
2019-02-22T17:26:47.084Z,22.00
2019-02-22T17:29:15.708Z,23.77
2019-02-22T17:31:44.313Z,22.90
2019-02-22T17:34:12.968Z,23.03
2019-02-22T17:36:41.911Z,22.37
2019-02-22T17:41:49.179Z,20.47
2019-02-22T17:44:17.922Z,20.00
2019-02-22T17:46:56.916Z,18.13
2019-02-22T17:49:15.745Z,18.27
2019-02-22T17:51:44.357Z,15.60
2019-02-22T17:54:13.323Z,17.93
2019-02-22T17:56:41.931Z,17.03
2019-02-22T18:01:49.413Z,17.47
2019-02-22T18:04:18.093Z,18.13
2019-02-22T18:06:46.819Z,18.37
2019-02-22T18:09:15.770Z,18.53
2019-02-22T18:11:44.637Z,19.07
2019-02-22T18:14:13.273Z,18.00
2019-02-22T18:16:42.249Z,17.90
2019-02-22T18:21:49.737Z,18.63
2019-02-22T18:24:18.728Z,18.57
2019-02-22T18:26:47.336Z,21.00
2019-02-22T18:29:15.968Z,21.33
2019-02-22T18:31:44.587Z,22.13
2019-02-22T18:34:13.565Z,22.87
2019-02-22T18:36:42.177Z,24.67
2019-02-22T18:41:49.649Z,23.90
2019-02-22T18:44:18.274Z,23.97
2019-02-22T18:46:46.874Z,25.17
2019-02-22T18:49:15.506Z,25.03
2019-02-22T18:51:44.123Z,23.53
2019-02-22T18:54:12.744Z,20.97
2019-02-22T18:56:41.379Z,18.53
2019-02-22T19:01:48.571Z,20.13
2019-02-22T19:04:17.205Z,18.33
2019-02-22T19:06:45.820Z,16.97
2019-02-22T19:09:14.439Z,16.67
2019-02-22T19:11:43.383Z,16.00
2019-02-22T19:14:12.287Z,13.37
2019-02-22T19:16:40.999Z,15.60
2019-02-22T19:19:09.634Z,14.73
2019-02-22T19:21:38.813Z,15.03
2019-02-22T19:24:07.835Z,14.57
2019-02-22T19:26:36.823Z,14.27
2019-02-22T19:29:05.465Z,14.07
2019-02-22T19:31:34.434Z,12.10
2019-02-22T19:34:03.220Z,12.90
2019-02-22T19:36:31.838Z,12.53
2019-02-22T19:39:00.851Z,12.13
2019-02-22T19:41:29.484Z,13.50
2019-02-22T19:43:58.586Z,14.50
2019-02-22T19:46:27.622Z,14.80
2019-02-22T19:48:56.261Z,17.63
2019-02-22T19:51:24.917Z,18.03
2019-02-22T19:53:53.589Z,19.17
2019-02-22T19:56:22.196Z,16.80
2019-02-22T19:58:50.927Z,18.30
2019-02-22T20:01:19.556Z,17.53
2019-02-22T20:03:48.511Z,18.07
2019-02-22T20:06:17.505Z,18.93
2019-02-22T20:08:46.393Z,21.27
2019-02-22T20:11:15.015Z,21.13
2019-02-22T20:13:43.716Z,24.10
2019-02-22T20:16:12.669Z,22.80
2019-02-22T20:18:41.284Z,25.20
2019-02-22T20:21:10.230Z,25.77
2019-02-22T20:23:38.844Z,27.97
2019-02-22T20:26:07.797Z,30.80
2019-02-22T20:28:36.797Z,28.00
2019-02-22T20:31:05.442Z,30.13
2019-02-22T20:33:34.233Z,30.27
2019-02-22T20:36:03.196Z,30.67
2019-02-22T20:38:31.875Z,30.50
2019-02-22T20:41:00.721Z,30.37
2019-02-22T20:43:29.337Z,29.40
2019-02-22T20:45:57.981Z,29.53
2019-02-22T20:48:26.675Z,29.93
2019-02-22T20:50:55.336Z,30.67
2019-02-22T20:53:23.968Z,29.87
2019-02-22T20:55:52.617Z,28.27
2019-02-22T20:58:21.242Z,27.90
2019-02-22T21:00:50.563Z,24.23
2019-02-22T21:03:19.161Z,27.90
2019-02-22T21:05:48.177Z,28.40
2019-02-22T21:08:17.063Z,27.57
2019-02-22T21:10:45.688Z,27.67
2019-02-22T21:13:14.636Z,28.77
2019-02-22T21:15:43.637Z,28.23
2019-02-22T21:18:16.296Z,29.43
2019-02-22T21:20:41.356Z,28.53
2019-02-22T21:23:10.239Z,29.27
2019-02-22T21:25:38.942Z,28.87
2019-02-22T21:28:07.868Z,30.90
2019-02-22T21:30:36.860Z,30.90
2019-02-22T21:33:05.494Z,31.67
2019-02-22T21:35:34.128Z,28.10
2019-02-22T21:38:02.735Z,29.53
2019-02-22T21:40:31.381Z,31.80
2019-02-22T21:43:00.388Z,31.13
2019-02-22T21:45:29.381Z,29.70
2019-02-22T21:47:57.988Z,29.77
2019-02-22T21:50:26.618Z,28.80
2019-02-22T21:52:55.526Z,27.43
2019-02-22T21:55:24.188Z,29.63
2019-02-22T21:57:53.104Z,29.17
2019-02-22T22:00:21.752Z,27.00
2019-02-22T22:02:50.371Z,28.97
2019-02-22T22:05:19.091Z,28.83
2019-02-22T22:07:47.724Z,28.60
2019-02-22T22:10:16.354Z,27.17
2019-02-22T22:12:44.979Z,27.23
2019-02-22T22:15:13.609Z,26.90
2019-02-22T22:17:42.246Z,24.93
2019-02-22T22:20:10.875Z,24.10
2019-02-22T22:22:39.510Z,23.83
2019-02-22T22:27:46.702Z,21.80
2019-02-22T22:30:15.338Z,20.53
2019-02-22T22:32:43.984Z,21.70
2019-02-22T22:35:12.989Z,20.17
2019-02-22T22:37:41.981Z,19.77
2019-02-22T22:40:10.616Z,19.60
2019-02-22T22:42:39.586Z,19.47
2019-02-22T22:47:49.215Z,19.27
2019-02-22T22:50:17.852Z,18.77
2019-02-22T22:52:46.490Z,18.57
2019-02-22T22:55:15.087Z,18.27
2019-02-22T22:57:43.719Z,19.30
2019-02-22T23:00:37.121Z,18.03
2019-02-22T23:03:05.747Z,18.77
2019-02-22T23:05:34.366Z,18.73
2019-02-22T23:08:02.991Z,18.47
2019-02-22T23:10:31.636Z,18.23
2019-02-22T23:13:00.254Z,18.27
2019-02-22T23:15:28.922Z,17.50
2019-02-22T23:17:57.566Z,17.73
2019-02-22T23:20:26.486Z,18.90
2019-02-22T23:22:55.460Z,18.90
2019-02-22T23:25:24.071Z,19.40
2019-02-22T23:27:52.707Z,18.73
2019-02-22T23:30:21.614Z,19.13
2019-02-22T23:32:50.502Z,18.43
2019-02-22T23:35:19.392Z,17.93
2019-02-22T23:37:48.044Z,19.47
2019-02-22T23:40:16.663Z,18.30
2019-02-22T23:42:45.650Z,18.90
2019-02-22T23:45:14.644Z,19.03
2019-02-22T23:47:43.265Z,18.20
2019-02-22T23:50:11.881Z,18.97
2019-02-22T23:52:40.519Z,19.87
2019-02-22T23:55:09.142Z,18.50
2019-02-22T23:57:37.764Z,18.70
